createdAt,value
2023-04-20T00:01:27.655Z,4.10
2023-04-20T00:03:55.757Z,2.20
2023-04-20T00:06:25.570Z,2.07
2023-04-20T00:08:53.633Z,2.00
2023-04-20T00:11:21.587Z,1.80
2023-04-20T00:13:51.080Z,3.27
2023-04-20T00:16:19.675Z,2.00
2023-04-20T00:18:48.187Z,2.50
2023-04-20T00:21:16.901Z,1.43
2023-04-20T00:23:44.947Z,2.90
2023-04-20T00:26:12.951Z,3.63
2023-04-20T00:28:41.011Z,1.87
2023-04-20T00:31:11.027Z,3.07
2023-04-20T00:33:39.017Z,2.00
2023-04-20T00:36:07.317Z,1.77
2023-04-20T00:38:35.720Z,2.67
2023-04-20T00:41:03.897Z,2.00
2023-04-20T00:43:31.899Z,2.10
2023-04-20T00:45:59.853Z,2.40
2023-04-20T00:48:29.231Z,5.70
2023-04-20T00:50:57.766Z,5.33
2023-04-20T00:53:25.749Z,5.10
2023-04-20T00:55:53.804Z,4.77
2023-04-20T00:58:22.546Z,4.97
2023-04-20T01:00:50.605Z,4.97
2023-04-20T01:03:18.845Z,4.47
2023-04-20T01:05:48.366Z,4.33
2023-04-20T01:08:16.351Z,4.90
2023-04-20T01:10:44.384Z,4.27
2023-04-20T01:13:12.282Z,4.33
2023-04-20T01:15:40.267Z,4.70
2023-04-20T01:18:09.694Z,4.07
2023-04-20T01:20:37.640Z,4.43
2023-04-20T01:23:06.977Z,2.10
2023-04-20T01:25:34.939Z,1.77
2023-04-20T01:28:03.178Z,3.97
2023-04-20T01:30:31.272Z,1.80
2023-04-20T01:32:59.304Z,1.90
2023-04-20T01:35:27.404Z,2.97
2023-04-20T01:37:55.440Z,4.47
2023-04-20T01:40:24.821Z,1.67
2023-04-20T01:42:52.770Z,1.70
2023-04-20T01:45:20.877Z,3.63
2023-04-20T01:47:48.875Z,1.60
2023-04-20T01:50:16.922Z,2.20
2023-04-20T01:52:44.883Z,1.53
2023-04-20T01:55:12.898Z,2.17
2023-04-20T01:57:42.218Z,1.93
2023-04-20T02:00:11.234Z,1.53
2023-04-20T02:02:39.353Z,1.80
2023-04-20T02:05:08.218Z,1.77
2023-04-20T02:07:36.173Z,1.33
2023-04-20T02:10:04.667Z,1.70
2023-04-20T02:12:32.632Z,1.80
2023-04-20T02:15:01.914Z,1.70
2023-04-20T02:17:30.088Z,2.77
2023-04-20T02:19:58.074Z,4.07
2023-04-20T02:22:26.067Z,2.80
2023-04-20T02:24:54.029Z,1.60
2023-04-20T02:27:21.995Z,1.93
2023-04-20T02:29:50.313Z,3.10
2023-04-20T02:32:19.674Z,2.23
2023-04-20T02:34:47.636Z,2.43
2023-04-20T02:37:15.779Z,1.60
2023-04-20T02:39:43.799Z,5.97
2023-04-20T02:42:11.742Z,14.83
2023-04-20T02:44:39.602Z,14.40
2023-04-20T02:47:07.671Z,14.50
2023-04-20T02:49:37.111Z,14.93
2023-04-20T02:52:05.330Z,13.17
2023-04-20T02:54:33.344Z,14.00
2023-04-20T02:57:01.678Z,13.80
2023-04-20T02:59:29.652Z,13.53
2023-04-20T03:01:57.752Z,13.90
2023-04-20T03:04:26.401Z,14.73
2023-04-20T03:06:55.989Z,14.53
2023-04-20T03:09:23.898Z,13.83
2023-04-20T03:11:52.137Z,13.33
2023-04-20T03:14:20.438Z,14.20
2023-04-20T03:16:48.542Z,14.23
2023-04-20T03:19:17.424Z,12.13
2023-04-20T03:21:46.127Z,12.60
2023-04-20T03:24:16.246Z,13.17
2023-04-20T03:26:44.402Z,12.90
2023-04-20T03:29:12.365Z,13.00
2023-04-20T03:31:40.447Z,14.50
2023-04-20T03:34:08.465Z,13.87
2023-04-20T03:36:36.959Z,12.73
2023-04-20T03:39:05.757Z,12.67
2023-04-20T03:41:35.014Z,12.60
2023-04-20T03:44:02.985Z,13.47
2023-04-20T03:46:31.044Z,13.77
2023-04-20T03:48:58.979Z,12.93
2023-04-20T03:51:27.017Z,12.40
2023-04-20T03:53:54.998Z,12.70
2023-04-20T03:56:23.015Z,12.00
2023-04-20T03:58:52.342Z,13.23
2023-04-20T04:01:20.418Z,13.13
2023-04-20T04:03:48.768Z,12.97
2023-04-20T04:06:17.031Z,12.63
2023-04-20T04:08:45.049Z,14.30
2023-04-20T04:11:12.979Z,13.20
2023-04-20T04:13:40.900Z,11.87
2023-04-20T04:16:10.272Z,11.23
2023-04-20T04:18:38.208Z,11.73
2023-04-20T04:21:08.256Z,12.27
2023-04-20T04:23:37.375Z,12.17
2023-04-20T04:26:05.914Z,12.13
2023-04-20T04:28:33.866Z,12.83
2023-04-20T04:31:06.272Z,12.47
2023-04-20T04:33:35.733Z,13.00
2023-04-20T04:36:04.163Z,12.27
2023-04-20T04:38:33.440Z,12.50
2023-04-20T04:41:01.673Z,12.73
2023-04-20T04:43:31.319Z,13.77
2023-04-20T04:45:59.544Z,15.90
2023-04-20T04:48:28.015Z,12.83
2023-04-20T04:50:57.285Z,12.30
2023-04-20T04:53:25.235Z,12.70
2023-04-20T04:55:53.245Z,14.17
2023-04-20T04:58:21.459Z,13.53
2023-04-20T05:00:52.022Z,13.37
2023-04-20T05:03:20.057Z,13.47
2023-04-20T05:05:48.070Z,15.00
2023-04-20T05:08:17.543Z,13.13
2023-04-20T05:10:45.629Z,14.40
2023-04-20T05:13:13.646Z,13.37
2023-04-20T05:15:43.358Z,13.80
2023-04-20T05:18:11.829Z,14.37
2023-04-20T05:20:39.870Z,13.77
2023-04-20T05:23:08.872Z,13.93
2023-04-20T05:25:38.961Z,12.67
2023-04-20T05:28:07.215Z,16.20
2023-04-20T05:30:35.309Z,14.60
2023-04-20T05:33:03.271Z,15.17
2023-04-20T05:35:31.243Z,15.47
2023-04-20T05:38:00.502Z,14.97
2023-04-20T05:40:28.553Z,14.60
2023-04-20T05:42:57.835Z,16.47
2023-04-20T05:45:25.869Z,14.73
2023-04-20T05:47:56.944Z,16.27
2023-04-20T05:50:25.647Z,17.30
2023-04-20T05:52:54.269Z,15.30
2023-04-20T05:55:22.976Z,15.70
2023-04-20T05:57:52.777Z,17.57
2023-04-20T06:00:25.729Z,16.80
2023-04-20T06:02:54.587Z,15.87
2023-04-20T06:05:22.879Z,16.63
2023-04-20T06:07:51.001Z,16.20
2023-04-20T06:10:18.997Z,17.60
2023-04-20T06:12:47.586Z,17.17
2023-04-20T06:15:15.553Z,17.60
2023-04-20T06:17:44.888Z,16.90
2023-04-20T06:20:13.184Z,18.90
2023-04-20T06:22:45.411Z,17.37
2023-04-20T06:25:15.525Z,19.30
2023-04-20T06:27:43.851Z,18.47
2023-04-20T06:30:12.939Z,18.00
2023-04-20T06:32:40.911Z,17.87
2023-04-20T06:35:10.708Z,17.43
2023-04-20T06:37:38.940Z,17.83
2023-04-20T06:40:09.490Z,17.97
2023-04-20T06:42:37.964Z,26.00
2023-04-20T06:45:07.561Z,18.43
2023-04-20T06:47:35.937Z,17.77
2023-04-20T06:50:07.401Z,18.80
2023-04-20T06:52:37.882Z,17.90
2023-04-20T06:55:06.635Z,18.20
2023-04-20T06:57:34.655Z,17.57
2023-04-20T07:00:02.877Z,17.33
2023-04-20T07:02:30.859Z,18.10
2023-04-20T07:05:02.756Z,17.77
2023-04-20T07:07:30.940Z,19.07
2023-04-20T07:10:00.559Z,18.57
2023-04-20T07:12:29.022Z,17.90
2023-04-20T07:14:56.971Z,18.83
2023-04-20T07:17:29.449Z,19.17
2023-04-20T07:19:58.219Z,18.70
2023-04-20T07:22:26.690Z,18.93
2023-04-20T07:24:54.707Z,17.77
2023-04-20T07:27:24.078Z,19.73
2023-04-20T07:29:52.154Z,18.83
2023-04-20T07:32:20.383Z,18.67
2023-04-20T07:34:48.417Z,18.47
2023-04-20T07:37:16.412Z,20.30
2023-04-20T07:39:44.450Z,17.40
2023-04-20T07:42:12.455Z,17.40
2023-04-20T07:44:41.757Z,16.93
2023-04-20T07:47:09.693Z,18.03
2023-04-20T07:49:38.673Z,16.27
2023-04-20T07:52:16.270Z,17.40
2023-04-20T07:54:45.396Z,17.70
2023-04-20T07:57:13.623Z,15.97
2023-04-20T07:59:43.522Z,17.80
2023-04-20T08:02:11.553Z,15.63
2023-04-20T08:04:40.429Z,15.73
2023-04-20T08:07:08.737Z,16.23
2023-04-20T08:09:36.841Z,14.13
2023-04-20T08:12:05.224Z,15.17
2023-04-20T08:14:33.718Z,14.20
2023-04-20T08:17:03.269Z,14.23
2023-04-20T08:19:31.305Z,14.80
2023-04-20T08:22:00.652Z,14.53
2023-04-20T08:24:29.724Z,14.07
2023-04-20T08:26:59.325Z,18.47
2023-04-20T08:29:27.664Z,14.40
2023-04-20T08:31:55.815Z,14.33
2023-04-20T08:34:25.370Z,17.00
2023-04-20T08:36:53.444Z,13.93
2023-04-20T08:39:24.376Z,13.67
2023-04-20T08:41:54.017Z,13.27
2023-04-20T08:44:22.260Z,14.30
2023-04-20T08:46:50.724Z,13.30
2023-04-20T08:49:20.961Z,13.02
2023-04-20T08:51:51.559Z,14.55
2023-04-20T08:54:20.003Z,13.00
2023-04-20T08:56:49.306Z,13.17
2023-04-20T08:59:17.726Z,14.03
2023-04-20T09:01:46.480Z,15.37
2023-04-20T09:04:19.563Z,15.43
2023-04-20T09:06:50.267Z,14.43
2023-04-20T09:09:20.396Z,14.90
2023-04-20T09:11:48.875Z,14.33
2023-04-20T09:14:18.524Z,17.67
2023-04-20T09:16:54.363Z,14.67
2023-04-20T09:19:25.699Z,14.27
2023-04-20T09:21:54.859Z,13.90
2023-04-20T09:24:31.449Z,14.70
2023-04-20T09:26:59.434Z,14.90
2023-04-20T09:29:27.885Z,15.33
2023-04-20T09:31:56.288Z,14.93
2023-04-20T09:34:25.774Z,13.77
2023-04-20T09:36:55.977Z,13.90
2023-04-20T09:39:26.970Z,14.10
2023-04-20T09:42:05.372Z,15.13
2023-04-20T09:44:34.121Z,14.00
2023-04-20T09:47:02.142Z,12.82
2023-04-20T09:49:30.826Z,12.48
2023-04-20T09:52:02.801Z,12.82
2023-04-20T09:54:32.648Z,13.05
2023-04-20T09:57:01.784Z,13.65
2023-04-20T09:59:30.552Z,13.85
2023-04-20T10:01:58.531Z,14.57
2023-04-20T10:04:26.984Z,13.57
2023-04-20T10:06:58.022Z,12.93
2023-04-20T10:09:27.437Z,12.93
2023-04-20T10:12:07.108Z,12.63
2023-04-20T10:14:35.718Z,12.35
2023-04-20T10:17:05.751Z,13.65
2023-04-20T10:19:41.209Z,13.77
2023-04-20T10:22:10.453Z,13.43
2023-04-20T10:24:39.114Z,13.52
2023-04-20T10:27:19.446Z,13.75
2023-04-20T10:29:47.867Z,12.68
2023-04-20T10:32:26.962Z,12.73
2023-04-20T10:35:06.582Z,13.13
2023-04-20T10:37:37.714Z,13.50
2023-04-20T10:40:08.118Z,12.38
2023-04-20T10:42:44.912Z,11.80
2023-04-20T10:45:13.648Z,11.48
2023-04-20T10:47:41.978Z,12.70
2023-04-20T10:50:12.201Z,11.73
2023-04-20T10:52:42.676Z,11.68
2023-04-20T10:55:21.101Z,12.15
2023-04-20T10:57:50.578Z,12.32
2023-04-20T11:00:20.550Z,10.95
2023-04-20T11:02:52.829Z,10.98
2023-04-20T11:05:21.773Z,11.13
2023-04-20T11:07:53.334Z,11.20
2023-04-20T11:10:22.145Z,10.07
2023-04-20T11:12:52.142Z,10.30
2023-04-20T11:15:20.099Z,9.80
2023-04-20T11:17:48.153Z,9.48
2023-04-20T11:20:17.718Z,10.30
2023-04-20T11:22:57.376Z,10.48
2023-04-20T11:25:25.385Z,9.75
2023-04-20T11:27:54.837Z,10.18
2023-04-20T11:30:22.859Z,9.70
2023-04-20T11:32:55.910Z,9.75
2023-04-20T11:35:24.136Z,9.95
2023-04-20T11:37:53.812Z,9.68
2023-04-20T11:40:22.047Z,9.88
2023-04-20T11:42:50.954Z,9.48
2023-04-20T11:45:20.272Z,9.18
2023-04-20T11:47:49.474Z,9.60
2023-04-20T11:50:17.554Z,9.48
2023-04-20T11:52:45.531Z,9.13
2023-04-20T11:55:13.435Z,10.82
2023-04-20T11:57:41.405Z,9.70
2023-04-20T12:00:10.760Z,13.75
2023-04-20T12:02:40.232Z,10.38
2023-04-20T12:05:09.070Z,10.27
2023-04-20T12:07:37.091Z,10.45
2023-04-20T12:10:05.393Z,14.70
2023-04-20T12:12:34.081Z,9.87
2023-04-20T12:15:01.981Z,10.30
2023-04-20T12:17:30.026Z,11.63
2023-04-20T12:19:59.399Z,10.93
2023-04-20T12:22:27.567Z,10.97
2023-04-20T12:24:55.476Z,10.53
2023-04-20T12:27:23.561Z,10.83
2023-04-20T12:29:51.510Z,11.13
2023-04-20T12:32:19.658Z,13.33
2023-04-20T12:34:47.621Z,9.50
2023-04-20T12:37:16.972Z,9.80
2023-04-20T12:39:44.944Z,9.93
2023-04-20T12:42:12.962Z,9.50
2023-04-20T12:44:41.040Z,10.27
2023-04-20T12:47:10.369Z,10.57
2023-04-20T12:49:38.443Z,10.43
2023-04-20T12:52:08.105Z,10.57
2023-04-20T12:54:37.733Z,10.13
2023-04-20T12:57:05.775Z,9.33
2023-04-20T12:59:33.781Z,8.77
2023-04-20T13:02:02.579Z,7.63
2023-04-20T13:04:30.838Z,6.47
2023-04-20T13:06:58.947Z,7.50
2023-04-20T13:09:28.312Z,8.43
2023-04-20T13:11:57.976Z,9.03
2023-04-20T13:14:26.631Z,9.77
2023-04-20T13:16:55.539Z,8.27
2023-04-20T13:19:24.148Z,8.60
2023-04-20T13:21:52.170Z,7.87
2023-04-20T13:24:20.565Z,8.37
2023-04-20T13:26:48.887Z,7.57
2023-04-20T13:29:18.415Z,7.83
2023-04-20T13:31:47.605Z,9.30
2023-04-20T13:34:15.833Z,11.03
2023-04-20T13:36:44.321Z,9.67
2023-04-20T13:39:13.467Z,9.40
2023-04-20T13:41:41.435Z,11.70
2023-04-20T13:44:15.867Z,11.47
2023-04-20T13:46:46.439Z,10.73
2023-04-20T13:49:15.582Z,8.17
2023-04-20T13:51:43.859Z,13.90
2023-04-20T13:54:12.033Z,8.97
2023-04-20T13:56:40.038Z,8.47
2023-04-20T13:59:08.031Z,10.07
2023-04-20T14:01:36.894Z,8.23
2023-04-20T14:04:06.762Z,8.47
2023-04-20T14:06:35.007Z,8.53
2023-04-20T14:09:03.045Z,9.40
2023-04-20T14:11:31.033Z,7.33
2023-04-20T14:13:59.066Z,7.70
2023-04-20T14:16:27.346Z,7.97
2023-04-20T14:18:55.383Z,7.40
2023-04-20T14:21:24.798Z,9.23
2023-04-20T14:23:54.674Z,9.00
2023-04-20T14:26:22.748Z,8.03
2023-04-20T14:28:52.588Z,7.03
2023-04-20T14:31:20.894Z,7.90
2023-04-20T14:33:48.963Z,9.87
2023-04-20T14:36:16.878Z,8.07
2023-04-20T14:38:46.282Z,8.07
2023-04-20T14:41:14.263Z,6.87
2023-04-20T14:43:42.246Z,7.07
2023-04-20T14:46:12.683Z,6.30
2023-04-20T14:48:42.035Z,6.10
2023-04-20T14:51:12.233Z,6.10
2023-04-20T14:53:40.302Z,7.20
2023-04-20T14:56:09.801Z,6.00
2023-04-20T14:58:38.394Z,9.03
2023-04-20T15:01:06.876Z,7.10
2023-04-20T15:03:34.995Z,6.83
2023-04-20T15:06:04.178Z,7.00
2023-04-20T15:08:32.240Z,11.60
2023-04-20T15:11:02.149Z,8.33
2023-04-20T15:13:31.479Z,9.20
2023-04-20T15:15:59.705Z,8.07
2023-04-20T15:18:27.966Z,9.50
2023-04-20T15:20:55.936Z,6.93
2023-04-20T15:23:24.795Z,7.03
2023-04-20T15:25:53.685Z,7.07
2023-04-20T15:28:21.749Z,7.40
2023-04-20T15:30:51.347Z,9.80
2023-04-20T15:33:19.668Z,8.17
2023-04-20T15:35:50.860Z,7.67
2023-04-20T15:38:18.933Z,8.53
2023-04-20T15:40:47.821Z,8.97
2023-04-20T15:43:15.835Z,7.27
2023-04-20T15:45:44.893Z,8.00
2023-04-20T15:48:14.386Z,9.93
2023-04-20T15:50:42.517Z,8.53
2023-04-20T15:53:10.477Z,8.10
2023-04-20T15:55:40.052Z,8.83
2023-04-20T15:58:08.007Z,8.03
2023-04-20T16:00:37.000Z,8.20
2023-04-20T16:03:05.874Z,7.00
2023-04-20T16:05:38.475Z,7.03
2023-04-20T16:08:06.734Z,7.80
2023-04-20T16:10:37.840Z,7.27
2023-04-20T16:13:06.289Z,7.37
2023-04-20T16:15:34.207Z,7.63
2023-04-20T16:18:05.074Z,7.53
2023-04-20T16:20:34.662Z,6.50
2023-04-20T16:23:04.069Z,8.47
2023-04-20T16:25:34.111Z,6.97
2023-04-20T16:28:02.292Z,6.97
2023-04-20T16:30:30.411Z,7.20
2023-04-20T16:32:59.919Z,7.20
2023-04-20T16:35:28.170Z,7.20
2023-04-20T16:37:56.676Z,15.27
2023-04-20T16:40:26.717Z,11.60
2023-04-20T16:42:55.430Z,9.10
2023-04-20T16:45:23.393Z,7.80
2023-04-20T16:47:52.491Z,7.70
2023-04-20T16:50:20.734Z,7.07
2023-04-20T16:52:49.076Z,8.00
2023-04-20T16:55:17.285Z,6.67
2023-04-20T16:57:46.751Z,6.83
2023-04-20T17:00:15.978Z,7.17
2023-04-20T17:02:44.067Z,6.40
2023-04-20T17:05:12.492Z,6.43
2023-04-20T17:07:40.880Z,6.63
2023-04-20T17:10:09.460Z,7.60
2023-04-20T17:12:38.825Z,6.20
2023-04-20T17:15:11.386Z,6.63
2023-04-20T17:17:39.477Z,10.07
2023-04-20T17:20:08.932Z,11.17
2023-04-20T17:22:37.451Z,10.10
2023-04-20T17:25:07.763Z,8.00
2023-04-20T17:27:36.659Z,9.70
2023-04-20T17:30:05.655Z,12.13
2023-04-20T17:32:35.488Z,10.47
2023-04-20T17:35:03.761Z,12.37
2023-04-20T17:37:31.798Z,10.13
2023-04-20T17:39:59.774Z,9.33
2023-04-20T17:42:28.192Z,9.43
2023-04-20T17:44:56.329Z,9.60
2023-04-20T17:47:24.389Z,13.10
2023-04-20T17:49:54.109Z,13.93
2023-04-20T17:52:25.275Z,9.87
2023-04-20T17:54:54.660Z,9.87
2023-04-20T17:57:22.713Z,9.17
2023-04-20T17:59:50.808Z,9.40
2023-04-20T18:02:19.062Z,10.37
2023-04-20T18:04:47.338Z,9.63
2023-04-20T18:07:17.935Z,10.13
2023-04-20T18:09:47.157Z,9.43
2023-04-20T18:12:15.410Z,10.77
2023-04-20T18:14:44.818Z,9.63
2023-04-20T18:17:13.369Z,12.90
2023-04-20T18:19:43.182Z,9.77
2023-04-20T18:22:13.558Z,8.97
2023-04-20T18:24:43.209Z,9.53
2023-04-20T18:27:11.557Z,10.07
2023-04-20T18:29:39.621Z,17.47
2023-04-20T18:32:13.202Z,15.03
2023-04-20T18:34:43.718Z,18.17
2023-04-20T18:37:14.179Z,17.67
2023-04-20T18:39:50.808Z,18.47
2023-04-20T18:42:21.063Z,24.47
2023-04-20T18:44:51.537Z,19.80
2023-04-20T18:47:21.372Z,17.77
2023-04-20T18:49:56.004Z,14.30
2023-04-20T18:52:26.857Z,14.53
2023-04-20T18:54:57.886Z,14.67
2023-04-20T18:57:30.211Z,14.77
2023-04-20T18:59:58.681Z,14.67
2023-04-20T19:02:27.144Z,16.43
2023-04-20T19:04:55.775Z,16.13
2023-04-20T19:07:33.664Z,14.93
2023-04-20T19:10:03.114Z,14.80
2023-04-20T19:12:31.619Z,13.10
2023-04-20T19:15:04.671Z,17.30
2023-04-20T19:17:33.186Z,13.53
2023-04-20T19:20:01.496Z,16.07
2023-04-20T19:22:30.304Z,19.23
2023-04-20T19:24:58.832Z,20.47
2023-04-20T19:27:28.591Z,20.57
2023-04-20T19:29:58.523Z,18.53
2023-04-20T19:32:27.994Z,15.90
2023-04-20T19:34:59.233Z,16.20
2023-04-20T19:37:27.811Z,16.00
2023-04-20T19:39:56.218Z,15.97
2023-04-20T19:42:42.578Z,16.67
2023-04-20T19:45:12.876Z,16.93
2023-04-20T19:47:41.087Z,18.90
2023-04-20T19:50:12.328Z,18.10
2023-04-20T19:52:42.875Z,19.63
2023-04-20T19:55:14.557Z,23.57
2023-04-20T19:57:42.848Z,22.80
2023-04-20T20:00:17.281Z,21.70
2023-04-20T20:02:45.818Z,22.97
2023-04-20T20:05:19.723Z,22.67
2023-04-20T20:07:52.315Z,24.93
2023-04-20T20:10:55.760Z,25.97
2023-04-20T20:13:28.401Z,32.77
2023-04-20T20:16:05.487Z,33.97
2023-04-20T20:18:37.593Z,32.17
2023-04-20T20:21:13.651Z,31.63
2023-04-20T20:23:49.009Z,30.43
2023-04-20T20:26:18.555Z,30.23
2023-04-20T20:28:49.940Z,29.27
2023-04-20T20:31:20.164Z,29.90
2023-04-20T20:33:49.764Z,30.50
2023-04-20T20:36:18.853Z,27.43
2023-04-20T20:38:47.424Z,29.00
2023-04-20T20:41:19.455Z,29.43
2023-04-20T20:43:50.478Z,28.80
2023-04-20T20:46:20.401Z,26.27
2023-04-20T20:48:50.110Z,24.47
2023-04-20T20:51:18.904Z,23.77
2023-04-20T20:53:49.586Z,22.77
2023-04-20T20:56:18.126Z,23.43
2023-04-20T20:58:47.221Z,28.23
2023-04-20T21:01:16.179Z,22.30
2023-04-20T21:03:45.722Z,22.93
2023-04-20T21:06:14.784Z,21.77
2023-04-20T21:08:43.667Z,22.07
2023-04-20T21:11:17.031Z,22.30
2023-04-20T21:13:46.528Z,21.87
2023-04-20T21:16:18.705Z,22.83
2023-04-20T21:18:48.429Z,24.40
2023-04-20T21:21:23.455Z,24.80
2023-04-20T21:23:52.940Z,24.17
2023-04-20T21:26:21.690Z,23.43
2023-04-20T21:28:50.628Z,22.77
2023-04-20T21:31:19.538Z,23.90
2023-04-20T21:33:49.322Z,21.47
2023-04-20T21:36:18.837Z,16.73
2023-04-20T21:38:49.060Z,15.83
2023-04-20T21:41:19.360Z,13.00
2023-04-20T21:43:49.790Z,13.33
2023-04-20T21:46:19.448Z,10.97
2023-04-20T21:48:51.601Z,10.80
2023-04-20T21:51:23.515Z,10.60
2023-04-20T21:53:52.050Z,10.20
2023-04-20T21:56:20.285Z,9.83
2023-04-20T21:58:48.306Z,9.57
2023-04-20T22:01:16.436Z,8.57
2023-04-20T22:03:44.641Z,9.30
2023-04-20T22:06:14.166Z,8.73
2023-04-20T22:08:42.185Z,8.97
2023-04-20T22:11:10.388Z,9.40
2023-04-20T22:13:38.619Z,8.63
2023-04-20T22:16:07.269Z,9.83
2023-04-20T22:18:35.363Z,11.80
2023-04-20T22:21:03.681Z,15.73
2023-04-20T22:23:33.033Z,17.67
2023-04-20T22:26:01.143Z,17.00
2023-04-20T22:28:29.347Z,16.77
2023-04-20T22:30:57.340Z,17.97
2023-04-20T22:33:25.895Z,18.57
2023-04-20T22:35:53.990Z,16.10
2023-04-20T22:38:22.012Z,17.77
2023-04-20T22:40:51.452Z,17.50
2023-04-20T22:43:20.484Z,18.37
2023-04-20T22:45:48.957Z,17.80
2023-04-20T22:48:17.635Z,17.67
2023-04-20T22:50:45.565Z,18.37
2023-04-20T22:53:13.890Z,18.10
2023-04-20T22:55:42.051Z,18.47
2023-04-20T22:58:11.689Z,17.93
2023-04-20T23:00:39.767Z,18.00
2023-04-20T23:03:08.201Z,21.43
2023-04-20T23:05:36.426Z,23.23
2023-04-20T23:08:04.724Z,20.00
2023-04-20T23:10:32.755Z,23.90
2023-04-20T23:13:00.942Z,30.10
2023-04-20T23:15:30.595Z,31.60
2023-04-20T23:17:58.608Z,32.97
2023-04-20T23:20:26.974Z,38.07
2023-04-20T23:22:54.956Z,36.03
2023-04-20T23:25:22.864Z,33.13
2023-04-20T23:27:50.903Z,37.97
2023-04-20T23:30:19.039Z,38.97
2023-04-20T23:32:48.431Z,36.43
2023-04-20T23:35:16.609Z,38.97
2023-04-20T23:37:44.659Z,40.03
2023-04-20T23:40:12.958Z,36.73
2023-04-20T23:42:40.851Z,37.90
2023-04-20T23:45:10.104Z,36.20
2023-04-20T23:47:38.038Z,39.00
2023-04-20T23:50:09.087Z,32.50
2023-04-20T23:52:37.141Z,33.27
2023-04-20T23:55:06.268Z,29.47
2023-04-20T23:57:34.252Z,30.90
